sensor_id;sensor_type;location;lat;lon;timestamp;temperature;humidity
18880;DHT22;9572;52.378;13.404;2022-09-01T00:00:44;15.80;99.90
18880;DHT22;9572;52.378;13.404;2022-09-01T00:03:14;15.90;99.90
18880;DHT22;9572;52.378;13.404;2022-09-01T00:05:41;15.80;99.90
18880;DHT22;9572;52.378;13.404;2022-09-01T00:08:10;15.80;99.90
18880;DHT22;9572;52.378;13.404;2022-09-01T00:10:38;15.90;99.90
18880;DHT22;9572;52.378;13.404;2022-09-01T00:13:06;15.90;99.90
18880;DHT22;9572;52.378;13.404;2022-09-01T00:15:33;15.80;99.90
18880;DHT22;9572;52.378;13.404;2022-09-01T00:18:01;15.80;99.90
18880;DHT22;9572;52.378;13.404;2022-09-01T00:20:28;15.70;99.90
18880;DHT22;9572;52.378;13.404;2022-09-01T00:22:55;15.70;99.90
18880;DHT22;9572;52.378;13.404;2022-09-01T00:25:24;15.70;99.90
18880;DHT22;9572;52.378;13.404;2022-09-01T00:27:52;15.70;99.90
18880;DHT22;9572;52.378;13.404;2022-09-01T00:30:24;15.70;99.90
18880;DHT22;9572;52.378;13.404;2022-09-01T00:32:51;15.70;99.90
18880;DHT22;9572;52.378;13.404;2022-09-01T00:35:18;15.70;99.90
18880;DHT22;9572;52.378;13.404;2022-09-01T00:37:45;15.70;99.90
18880;DHT22;9572;52.378;13.404;2022-09-01T00:40:15;15.70;99.90
18880;DHT22;9572;52.378;13.404;2022-09-01T00:42:43;15.70;99.90
18880;DHT22;9572;52.378;13.404;2022-09-01T00:45:10;15.70;99.90
18880;DHT22;9572;52.378;13.404;2022-09-01T00:47:38;15.60;99.90
18880;DHT22;9572;52.378;13.404;2022-09-01T00:50:07;15.60;99.90
18880;DHT22;9572;52.378;13.404;2022-09-01T00:52:40;15.60;99.90
18880;DHT22;9572;52.378;13.404;2022-09-01T00:55:11;15.70;99.90
18880;DHT22;9572;52.378;13.404;2022-09-01T00:57:39;15.70;99.90
18880;DHT22;9572;52.378;13.404;2022-09-01T01:00:13;15.70;99.90
18880;DHT22;9572;52.378;13.404;2022-09-01T01:02:41;15.60;99.90
18880;DHT22;9572;52.378;13.404;2022-09-01T01:05:09;15.60;99.90
18880;DHT22;9572;52.378;13.404;2022-09-01T01:07:37;15.60;99.90
18880;DHT22;9572;52.378;13.404;2022-09-01T01:10:11;15.50;99.90
18880;DHT22;9572;52.378;13.404;2022-09-01T01:12:40;15.50;99.90
18880;DHT22;9572;52.378;13.404;2022-09-01T01:15:10;15.50;99.90
18880;DHT22;9572;52.378;13.404;2022-09-01T01:17:37;15.60;99.90
18880;DHT22;9572;52.378;13.404;2022-09-01T01:20:06;15.60;99.90
18880;DHT22;9572;52.378;13.404;2022-09-01T01:22:57;15.60;99.90
18880;DHT22;9572;52.378;13.404;2022-09-01T01:25:33;15.50;99.90
18880;DHT22;9572;52.378;13.404;2022-09-01T01:28:07;15.50;99.90
18880;DHT22;9572;52.378;13.404;2022-09-01T01:30:35;15.50;99.90
18880;DHT22;9572;52.378;13.404;2022-09-01T01:33:02;15.50;99.90
18880;DHT22;9572;52.378;13.404;2022-09-01T01:35:30;15.50;99.90
18880;DHT22;9572;52.378;13.404;2022-09-01T01:37:59;15.50;99.90
18880;DHT22;9572;52.378;13.404;2022-09-01T01:40:27;15.40;99.90
18880;DHT22;9572;52.378;13.404;2022-09-01T01:42:57;15.50;99.90
18880;DHT22;9572;52.378;13.404;2022-09-01T01:45:25;15.40;99.90
18880;DHT22;9572;52.378;13.404;2022-09-01T01:47:54;15.50;99.90
18880;DHT22;9572;52.378;13.404;2022-09-01T01:50:23;15.50;99.90
18880;DHT22;9572;52.378;13.404;2022-09-01T01:52:50;15.50;99.90
18880;DHT22;9572;52.378;13.404;2022-09-01T01:55:19;15.40;99.90
18880;DHT22;9572;52.378;13.404;2022-09-01T01:57:48;15.50;99.90
18880;DHT22;9572;52.378;13.404;2022-09-01T02:00:20;15.50;99.90
18880;DHT22;9572;52.378;13.404;2022-09-01T02:02:48;15.60;99.90
18880;DHT22;9572;52.378;13.404;2022-09-01T02:05:22;15.50;99.90
18880;DHT22;9572;52.378;13.404;2022-09-01T02:07:54;15.40;99.90
18880;DHT22;9572;52.378;13.404;2022-09-01T02:10:23;15.40;99.90
18880;DHT22;9572;52.378;13.404;2022-09-01T02:12:50;15.40;99.90
18880;DHT22;9572;52.378;13.404;2022-09-01T02:15:19;15.40;99.90
18880;DHT22;9572;52.378;13.404;2022-09-01T02:17:46;15.40;99.90
18880;DHT22;9572;52.378;13.404;2022-09-01T02:20:14;15.30;99.90
18880;DHT22;9572;52.378;13.404;2022-09-01T02:22:42;15.20;99.90
18880;DHT22;9572;52.378;13.404;2022-09-01T02:25:11;15.10;99.90
18880;DHT22;9572;52.378;13.404;2022-09-01T02:27:41;15.20;99.90
18880;DHT22;9572;52.378;13.404;2022-09-01T02:30:09;15.20;99.90
18880;DHT22;9572;52.378;13.404;2022-09-01T02:32:39;15.20;99.90
18880;DHT22;9572;52.378;13.404;2022-09-01T02:35:07;15.20;99.90
18880;DHT22;9572;52.378;13.404;2022-09-01T02:37:37;15.20;99.90
18880;DHT22;9572;52.378;13.404;2022-09-01T02:40:07;15.10;99.90
18880;DHT22;9572;52.378;13.404;2022-09-01T02:42:36;15.10;99.90
18880;DHT22;9572;52.378;13.404;2022-09-01T02:45:08;15.10;99.90
18880;DHT22;9572;52.378;13.404;2022-09-01T02:47:43;15.00;99.90
18880;DHT22;9572;52.378;13.404;2022-09-01T02:50:13;15.00;99.90
18880;DHT22;9572;52.378;13.404;2022-09-01T02:52:44;15.10;99.90
18880;DHT22;9572;52.378;13.404;2022-09-01T02:55:13;15.10;99.90
18880;DHT22;9572;52.378;13.404;2022-09-01T02:57:47;15.10;99.90
18880;DHT22;9572;52.378;13.404;2022-09-01T03:00:16;15.10;99.90
18880;DHT22;9572;52.378;13.404;2022-09-01T03:02:52;15.10;99.90
18880;DHT22;9572;52.378;13.404;2022-09-01T03:05:20;15.00;99.90
18880;DHT22;9572;52.378;13.404;2022-09-01T03:07:51;15.00;99.90
18880;DHT22;9572;52.378;13.404;2022-09-01T03:10:26;15.10;99.90
18880;DHT22;9572;52.378;13.404;2022-09-01T03:12:55;15.00;99.90
18880;DHT22;9572;52.378;13.404;2022-09-01T03:15:22;15.00;99.90
18880;DHT22;9572;52.378;13.404;2022-09-01T03:17:50;14.90;99.90
18880;DHT22;9572;52.378;13.404;2022-09-01T03:20:18;14.90;99.90
18880;DHT22;9572;52.378;13.404;2022-09-01T03:22:47;14.80;99.90
18880;DHT22;9572;52.378;13.404;2022-09-01T03:25:15;14.80;99.90
18880;DHT22;9572;52.378;13.404;2022-09-01T03:27:43;14.70;99.90
18880;DHT22;9572;52.378;13.404;2022-09-01T03:30:11;14.70;99.90
18880;DHT22;9572;52.378;13.404;2022-09-01T03:32:38;14.70;99.90
18880;DHT22;9572;52.378;13.404;2022-09-01T03:35:07;14.60;99.90
18880;DHT22;9572;52.378;13.404;2022-09-01T03:37:34;14.50;99.90
18880;DHT22;9572;52.378;13.404;2022-09-01T03:40:03;14.50;99.90
18880;DHT22;9572;52.378;13.404;2022-09-01T03:42:30;14.40;99.90
18880;DHT22;9572;52.378;13.404;2022-09-01T03:44:57;14.40;99.90
18880;DHT22;9572;52.378;13.404;2022-09-01T03:47:24;14.30;99.90
18880;DHT22;9572;52.378;13.404;2022-09-01T03:49:52;14.30;99.90
18880;DHT22;9572;52.378;13.404;2022-09-01T03:52:21;14.30;99.90
18880;DHT22;9572;52.378;13.404;2022-09-01T03:54:52;14.20;99.90
18880;DHT22;9572;52.378;13.404;2022-09-01T03:57:20;14.20;99.90
18880;DHT22;9572;52.378;13.404;2022-09-01T03:59:47;14.10;99.90
18880;DHT22;9572;52.378;13.404;2022-09-01T04:02:15;14.10;99.90
18880;DHT22;9572;52.378;13.404;2022-09-01T04:04:42;14.10;99.90
18880;DHT22;9572;52.378;13.404;2022-09-01T04:07:09;14.10;99.90
18880;DHT22;9572;52.378;13.404;2022-09-01T04:09:37;14.00;99.90
18880;DHT22;9572;52.378;13.404;2022-09-01T04:12:04;14.00;99.90
18880;DHT22;9572;52.378;13.404;2022-09-01T04:14:35;13.90;99.90
18880;DHT22;9572;52.378;13.404;2022-09-01T04:17:02;13.80;99.90
18880;DHT22;9572;52.378;13.404;2022-09-01T04:19:46;13.80;99.90
18880;DHT22;9572;52.378;13.404;2022-09-01T04:22:13;13.90;99.90
18880;DHT22;9572;52.378;13.404;2022-09-01T04:24:43;13.80;99.90
18880;DHT22;9572;52.378;13.404;2022-09-01T04:27:12;13.70;99.90
18880;DHT22;9572;52.378;13.404;2022-09-01T04:29:39;13.60;99.90
18880;DHT22;9572;52.378;13.404;2022-09-01T04:32:08;13.70;99.90
18880;DHT22;9572;52.378;13.404;2022-09-01T04:34:37;13.70;99.90
18880;DHT22;9572;52.378;13.404;2022-09-01T04:37:10;13.70;99.90
18880;DHT22;9572;52.378;13.404;2022-09-01T04:39:40;13.60;99.90
18880;DHT22;9572;52.378;13.404;2022-09-01T04:42:14;13.50;99.90
18880;DHT22;9572;52.378;13.404;2022-09-01T04:44:43;13.50;99.90
18880;DHT22;9572;52.378;13.404;2022-09-01T04:47:11;13.50;99.90
18880;DHT22;9572;52.378;13.404;2022-09-01T04:49:41;13.50;99.90
18880;DHT22;9572;52.378;13.404;2022-09-01T04:52:10;13.50;99.90
18880;DHT22;9572;52.378;13.404;2022-09-01T04:54:37;13.50;99.90
18880;DHT22;9572;52.378;13.404;2022-09-01T04:57:05;13.40;99.90
18880;DHT22;9572;52.378;13.404;2022-09-01T04:59:34;13.50;99.90
18880;DHT22;9572;52.378;13.404;2022-09-01T05:02:01;13.40;99.90
18880;DHT22;9572;52.378;13.404;2022-09-01T05:04:34;13.40;99.90
18880;DHT22;9572;52.378;13.404;2022-09-01T05:07:03;13.50;99.90
18880;DHT22;9572;52.378;13.404;2022-09-01T05:09:35;13.50;99.90
18880;DHT22;9572;52.378;13.404;2022-09-01T05:12:03;13.50;99.90
18880;DHT22;9572;52.378;13.404;2022-09-01T05:14:38;13.50;99.90
18880;DHT22;9572;52.378;13.404;2022-09-01T05:17:07;13.60;99.90
18880;DHT22;9572;52.378;13.404;2022-09-01T05:19:35;13.60;99.90
18880;DHT22;9572;52.378;13.404;2022-09-01T05:22:03;13.60;99.90
18880;DHT22;9572;52.378;13.404;2022-09-01T05:24:34;13.70;99.90
18880;DHT22;9572;52.378;13.404;2022-09-01T05:27:02;13.70;99.90
18880;DHT22;9572;52.378;13.404;2022-09-01T05:29:30;13.80;99.90
18880;DHT22;9572;52.378;13.404;2022-09-01T05:31:58;13.90;99.90
18880;DHT22;9572;52.378;13.404;2022-09-01T05:34:33;13.90;99.90
18880;DHT22;9572;52.378;13.404;2022-09-01T05:37:03;14.00;99.90
18880;DHT22;9572;52.378;13.404;2022-09-01T05:39:31;14.10;99.90
18880;DHT22;9572;52.378;13.404;2022-09-01T05:42:00;14.20;99.90
18880;DHT22;9572;52.378;13.404;2022-09-01T05:44:29;14.40;99.90
18880;DHT22;9572;52.378;13.404;2022-09-01T05:46:59;14.50;99.90
18880;DHT22;9572;52.378;13.404;2022-09-01T05:49:27;14.60;99.90
18880;DHT22;9572;52.378;13.404;2022-09-01T05:51:57;14.70;99.90
18880;DHT22;9572;52.378;13.404;2022-09-01T05:54:25;14.70;99.90
18880;DHT22;9572;52.378;13.404;2022-09-01T05:56:54;14.90;99.90
18880;DHT22;9572;52.378;13.404;2022-09-01T05:59:22;15.10;99.90
18880;DHT22;9572;52.378;13.404;2022-09-01T06:01:51;15.30;99.90
18880;DHT22;9572;52.378;13.404;2022-09-01T06:04:19;15.30;99.90
18880;DHT22;9572;52.378;13.404;2022-09-01T06:06:47;15.40;99.90
18880;DHT22;9572;52.378;13.404;2022-09-01T06:09:16;15.30;99.90
18880;DHT22;9572;52.378;13.404;2022-09-01T06:11:44;15.40;99.90
18880;DHT22;9572;52.378;13.404;2022-09-01T06:14:12;15.70;99.90
18880;DHT22;9572;52.378;13.404;2022-09-01T06:16:40;15.90;99.90
18880;DHT22;9572;52.378;13.404;2022-09-01T06:19:08;16.00;99.90
18880;DHT22;9572;52.378;13.404;2022-09-01T06:21:39;15.90;99.90
18880;DHT22;9572;52.378;13.404;2022-09-01T06:24:06;16.00;99.90
18880;DHT22;9572;52.378;13.404;2022-09-01T06:26:34;16.10;99.90
18880;DHT22;9572;52.378;13.404;2022-09-01T06:29:05;16.10;99.90
18880;DHT22;9572;52.378;13.404;2022-09-01T06:31:35;16.20;99.90
18880;DHT22;9572;52.378;13.404;2022-09-01T06:34:05;16.10;99.90
18880;DHT22;9572;52.378;13.404;2022-09-01T06:36:34;16.10;99.90
18880;DHT22;9572;52.378;13.404;2022-09-01T06:39:03;16.10;99.90
18880;DHT22;9572;52.378;13.404;2022-09-01T06:41:30;16.10;99.90
18880;DHT22;9572;52.378;13.404;2022-09-01T06:43:57;16.10;99.90
18880;DHT22;9572;52.378;13.404;2022-09-01T06:46:26;16.00;99.90
18880;DHT22;9572;52.378;13.404;2022-09-01T06:48:54;16.00;99.90
18880;DHT22;9572;52.378;13.404;2022-09-01T06:51:24;16.00;99.90
18880;DHT22;9572;52.378;13.404;2022-09-01T06:53:53;16.10;99.90
18880;DHT22;9572;52.378;13.404;2022-09-01T06:56:25;16.10;99.90
18880;DHT22;9572;52.378;13.404;2022-09-01T06:58:56;16.10;99.90
18880;DHT22;9572;52.378;13.404;2022-09-01T07:01:23;16.10;99.90
18880;DHT22;9572;52.378;13.404;2022-09-01T07:03:53;16.10;99.90
18880;DHT22;9572;52.378;13.404;2022-09-01T07:06:22;16.20;99.90
18880;DHT22;9572;52.378;13.404;2022-09-01T07:08:52;16.20;99.90
18880;DHT22;9572;52.378;13.404;2022-09-01T07:11:22;16.20;99.90
18880;DHT22;9572;52.378;13.404;2022-09-01T07:13:52;16.30;99.90
18880;DHT22;9572;52.378;13.404;2022-09-01T07:16:21;16.30;99.90
18880;DHT22;9572;52.378;13.404;2022-09-01T07:18:48;16.40;99.90
18880;DHT22;9572;52.378;13.404;2022-09-01T07:21:15;16.50;99.90
18880;DHT22;9572;52.378;13.404;2022-09-01T07:23:42;16.60;99.90
18880;DHT22;9572;52.378;13.404;2022-09-01T07:26:09;16.60;99.90
18880;DHT22;9572;52.378;13.404;2022-09-01T07:28:42;16.70;99.90
18880;DHT22;9572;52.378;13.404;2022-09-01T07:31:18;16.80;99.90
18880;DHT22;9572;52.378;13.404;2022-09-01T07:33:47;16.80;99.90
18880;DHT22;9572;52.378;13.404;2022-09-01T07:36:15;16.80;99.90
18880;DHT22;9572;52.378;13.404;2022-09-01T07:38:43;16.80;99.90
18880;DHT22;9572;52.378;13.404;2022-09-01T07:41:10;16.90;99.90
18880;DHT22;9572;52.378;13.404;2022-09-01T07:43:38;17.00;99.90
18880;DHT22;9572;52.378;13.404;2022-09-01T07:46:07;17.00;99.90
18880;DHT22;9572;52.378;13.404;2022-09-01T07:48:35;17.20;99.90
18880;DHT22;9572;52.378;13.404;2022-09-01T07:51:02;17.30;99.90
18880;DHT22;9572;52.378;13.404;2022-09-01T07:53:32;17.50;99.90
18880;DHT22;9572;52.378;13.404;2022-09-01T07:56:03;17.80;99.90
18880;DHT22;9572;52.378;13.404;2022-09-01T07:58:32;17.90;99.90
18880;DHT22;9572;52.378;13.404;2022-09-01T08:00:59;18.00;99.90
18880;DHT22;9572;52.378;13.404;2022-09-01T08:03:28;17.90;99.90
18880;DHT22;9572;52.378;13.404;2022-09-01T08:06:02;17.90;99.90
18880;DHT22;9572;52.378;13.404;2022-09-01T08:08:31;17.90;99.90
18880;DHT22;9572;52.378;13.404;2022-09-01T08:10:58;17.90;99.90
18880;DHT22;9572;52.378;13.404;2022-09-01T08:13:25;17.90;99.90
18880;DHT22;9572;52.378;13.404;2022-09-01T08:15:52;17.90;99.90
18880;DHT22;9572;52.378;13.404;2022-09-01T08:18:19;18.00;99.90
18880;DHT22;9572;52.378;13.404;2022-09-01T08:20:46;18.10;99.90
18880;DHT22;9572;52.378;13.404;2022-09-01T08:23:17;18.10;99.90
18880;DHT22;9572;52.378;13.404;2022-09-01T08:25:46;18.10;99.90
18880;DHT22;9572;52.378;13.404;2022-09-01T08:28:13;18.20;99.90
18880;DHT22;9572;52.378;13.404;2022-09-01T08:30:43;18.20;99.90
18880;DHT22;9572;52.378;13.404;2022-09-01T08:33:10;18.20;99.90
18880;DHT22;9572;52.378;13.404;2022-09-01T08:35:39;18.30;99.90
18880;DHT22;9572;52.378;13.404;2022-09-01T08:38:07;18.30;99.90
18880;DHT22;9572;52.378;13.404;2022-09-01T08:40:36;18.30;99.90
18880;DHT22;9572;52.378;13.404;2022-09-01T08:43:13;18.50;99.90
18880;DHT22;9572;52.378;13.404;2022-09-01T08:45:46;18.70;99.90
18880;DHT22;9572;52.378;13.404;2022-09-01T08:48:17;18.70;99.90
18880;DHT22;9572;52.378;13.404;2022-09-01T08:50:50;18.80;99.90
18880;DHT22;9572;52.378;13.404;2022-09-01T08:53:23;19.10;99.90
18880;DHT22;9572;52.378;13.404;2022-09-01T08:55:55;19.40;99.90
18880;DHT22;9572;52.378;13.404;2022-09-01T08:58:22;19.80;99.90
18880;DHT22;9572;52.378;13.404;2022-09-01T09:00:54;20.30;99.90
18880;DHT22;9572;52.378;13.404;2022-09-01T09:03:29;20.50;99.90
18880;DHT22;9572;52.378;13.404;2022-09-01T09:06:05;20.90;99.90
18880;DHT22;9572;52.378;13.404;2022-09-01T09:08:51;21.20;99.90
18880;DHT22;9572;52.378;13.404;2022-09-01T09:14:27;21.60;99.90
18880;DHT22;9572;52.378;13.404;2022-09-01T09:16:58;21.70;99.90
18880;DHT22;9572;52.378;13.404;2022-09-01T09:19:28;21.90;99.90
18880;DHT22;9572;52.378;13.404;2022-09-01T09:21:58;22.10;99.90
18880;DHT22;9572;52.378;13.404;2022-09-01T09:24:27;22.30;99.90
18880;DHT22;9572;52.378;13.404;2022-09-01T09:26:57;22.20;99.90
18880;DHT22;9572;52.378;13.404;2022-09-01T09:29:24;22.10;99.90
18880;DHT22;9572;52.378;13.404;2022-09-01T09:32:02;22.20;99.90
18880;DHT22;9572;52.378;13.404;2022-09-01T09:34:32;22.20;99.90
18880;DHT22;9572;52.378;13.404;2022-09-01T09:37:18;22.40;99.90
18880;DHT22;9572;52.378;13.404;2022-09-01T09:40:08;22.70;99.90
18880;DHT22;9572;52.378;13.404;2022-09-01T09:42:37;23.00;99.90
18880;DHT22;9572;52.378;13.404;2022-09-01T09:45:12;22.90;99.90
18880;DHT22;9572;52.378;13.404;2022-09-01T09:47:45;23.00;99.90
18880;DHT22;9572;52.378;13.404;2022-09-01T09:50:23;23.10;99.90
18880;DHT22;9572;52.378;13.404;2022-09-01T09:52:52;23.30;99.90
18880;DHT22;9572;52.378;13.404;2022-09-01T09:55:26;23.60;99.90
18880;DHT22;9572;52.378;13.404;2022-09-01T09:57:57;23.50;99.90
18880;DHT22;9572;52.378;13.404;2022-09-01T10:00:27;23.30;99.90
18880;DHT22;9572;52.378;13.404;2022-09-01T10:02:57;23.30;99.90
18880;DHT22;9572;52.378;13.404;2022-09-01T10:05:39;23.80;99.90
18880;DHT22;9572;52.378;13.404;2022-09-01T10:08:09;24.00;99.90
18880;DHT22;9572;52.378;13.404;2022-09-01T10:10:39;23.80;99.90
18880;DHT22;9572;52.378;13.404;2022-09-01T10:13:11;24.20;99.90
18880;DHT22;9572;52.378;13.404;2022-09-01T10:15:40;24.70;99.90
18880;DHT22;9572;52.378;13.404;2022-09-01T10:18:12;24.90;99.90
18880;DHT22;9572;52.378;13.404;2022-09-01T10:20:45;24.00;99.90
18880;DHT22;9572;52.378;13.404;2022-09-01T10:23:14;23.90;99.90
18880;DHT22;9572;52.378;13.404;2022-09-01T10:25:41;24.40;99.90
18880;DHT22;9572;52.378;13.404;2022-09-01T10:28:14;24.40;99.90
18880;DHT22;9572;52.378;13.404;2022-09-01T10:30:43;24.40;99.90
18880;DHT22;9572;52.378;13.404;2022-09-01T10:33:14;24.40;99.90
18880;DHT22;9572;52.378;13.404;2022-09-01T10:35:43;24.50;99.90
18880;DHT22;9572;52.378;13.404;2022-09-01T10:38:16;24.40;99.90
18880;DHT22;9572;52.378;13.404;2022-09-01T10:40:46;24.00;99.90
18880;DHT22;9572;52.378;13.404;2022-09-01T10:43:25;23.30;99.90
18880;DHT22;9572;52.378;13.404;2022-09-01T10:45:53;23.60;99.90
18880;DHT22;9572;52.378;13.404;2022-09-01T10:48:29;24.40;99.90
18880;DHT22;9572;52.378;13.404;2022-09-01T10:57:42;26.20;99.90
18880;DHT22;9572;52.378;13.404;2022-09-01T11:00:52;25.90;99.90
18880;DHT22;9572;52.378;13.404;2022-09-01T11:06:52;24.70;99.90
18880;DHT22;9572;52.378;13.404;2022-09-01T11:09:25;24.00;99.90
18880;DHT22;9572;52.378;13.404;2022-09-01T11:12:09;23.90;99.90
18880;DHT22;9572;52.378;13.404;2022-09-01T11:14:47;24.40;99.90
18880;DHT22;9572;52.378;13.404;2022-09-01T11:17:19;25.00;99.90
18880;DHT22;9572;52.378;13.404;2022-09-01T11:19:54;25.60;99.90
18880;DHT22;9572;52.378;13.404;2022-09-01T11:22:31;26.10;99.90
18880;DHT22;9572;52.378;13.404;2022-09-01T11:28:05;26.70;99.90
18880;DHT22;9572;52.378;13.404;2022-09-01T11:30:36;27.00;99.90
18880;DHT22;9572;52.378;13.404;2022-09-01T11:33:20;27.10;99.90
18880;DHT22;9572;52.378;13.404;2022-09-01T11:35:59;27.40;99.90
18880;DHT22;9572;52.378;13.404;2022-09-01T11:38:28;27.70;98.30
18880;DHT22;9572;52.378;13.404;2022-09-01T11:40:56;27.50;98.50
18880;DHT22;9572;52.378;13.404;2022-09-01T11:43:24;27.20;98.00
18880;DHT22;9572;52.378;13.404;2022-09-01T11:46:00;26.90;98.10
18880;DHT22;9572;52.378;13.404;2022-09-01T11:48:30;26.70;99.90
18880;DHT22;9572;52.378;13.404;2022-09-01T11:50:59;26.30;99.90
18880;DHT22;9572;52.378;13.404;2022-09-01T11:53:27;25.60;99.90
18880;DHT22;9572;52.378;13.404;2022-09-01T11:55:56;24.50;99.90
18880;DHT22;9572;52.378;13.404;2022-09-01T11:58:37;23.80;99.90
18880;DHT22;9572;52.378;13.404;2022-09-01T12:01:19;23.40;99.90
18880;DHT22;9572;52.378;13.404;2022-09-01T12:03:50;23.10;99.90
18880;DHT22;9572;52.378;13.404;2022-09-01T12:06:20;23.00;99.90
18880;DHT22;9572;52.378;13.404;2022-09-01T12:08:54;22.60;99.90
18880;DHT22;9572;52.378;13.404;2022-09-01T12:11:23;22.50;99.90
18880;DHT22;9572;52.378;13.404;2022-09-01T12:13:57;22.40;99.90
18880;DHT22;9572;52.378;13.404;2022-09-01T12:16:24;22.30;99.90
18880;DHT22;9572;52.378;13.404;2022-09-01T12:18:55;22.20;99.90
18880;DHT22;9572;52.378;13.404;2022-09-01T12:21:25;22.10;99.90
18880;DHT22;9572;52.378;13.404;2022-09-01T12:23:53;22.10;99.90
18880;DHT22;9572;52.378;13.404;2022-09-01T12:26:23;22.00;99.90
18880;DHT22;9572;52.378;13.404;2022-09-01T12:28:51;22.00;99.90
18880;DHT22;9572;52.378;13.404;2022-09-01T12:31:22;22.00;99.90
18880;DHT22;9572;52.378;13.404;2022-09-01T12:33:51;22.00;99.90
18880;DHT22;9572;52.378;13.404;2022-09-01T12:36:22;22.10;99.90
18880;DHT22;9572;52.378;13.404;2022-09-01T12:38:51;22.30;99.90
18880;DHT22;9572;52.378;13.404;2022-09-01T12:41:31;22.50;99.90
18880;DHT22;9572;52.378;13.404;2022-09-01T12:44:27;22.50;99.90
18880;DHT22;9572;52.378;13.404;2022-09-01T12:46:55;22.50;99.90
18880;DHT22;9572;52.378;13.404;2022-09-01T12:49:24;22.50;99.90
18880;DHT22;9572;52.378;13.404;2022-09-01T12:52:14;22.30;99.90
18880;DHT22;9572;52.378;13.404;2022-09-01T12:54:44;22.30;99.90
18880;DHT22;9572;52.378;13.404;2022-09-01T12:57:23;22.40;99.90
18880;DHT22;9572;52.378;13.404;2022-09-01T13:00:13;22.40;99.90
18880;DHT22;9572;52.378;13.404;2022-09-01T13:02:43;22.50;99.90
18880;DHT22;9572;52.378;13.404;2022-09-01T13:05:21;22.70;99.90
18880;DHT22;9572;52.378;13.404;2022-09-01T13:07:52;22.90;99.90
18880;DHT22;9572;52.378;13.404;2022-09-01T13:10:19;23.00;99.90
18880;DHT22;9572;52.378;13.404;2022-09-01T13:12:46;23.10;99.90
18880;DHT22;9572;52.378;13.404;2022-09-01T13:15:13;22.90;99.90
18880;DHT22;9572;52.378;13.404;2022-09-01T13:17:40;22.90;99.90
18880;DHT22;9572;52.378;13.404;2022-09-01T13:20:09;22.80;99.90
18880;DHT22;9572;52.378;13.404;2022-09-01T13:22:37;22.80;99.90
18880;DHT22;9572;52.378;13.404;2022-09-01T13:25:07;22.80;99.90
18880;DHT22;9572;52.378;13.404;2022-09-01T13:27:35;22.70;99.90
18880;DHT22;9572;52.378;13.404;2022-09-01T13:30:03;22.70;99.90
18880;DHT22;9572;52.378;13.404;2022-09-01T13:32:31;22.60;99.90
18880;DHT22;9572;52.378;13.404;2022-09-01T13:34:58;22.40;99.90
18880;DHT22;9572;52.378;13.404;2022-09-01T13:37:25;22.30;99.90
18880;DHT22;9572;52.378;13.404;2022-09-01T13:39:52;22.40;99.90
18880;DHT22;9572;52.378;13.404;2022-09-01T13:42:20;22.30;99.90
18880;DHT22;9572;52.378;13.404;2022-09-01T13:44:47;22.20;99.90
18880;DHT22;9572;52.378;13.404;2022-09-01T13:47:15;22.30;99.90
18880;DHT22;9572;52.378;13.404;2022-09-01T13:49:42;22.30;99.90
18880;DHT22;9572;52.378;13.404;2022-09-01T13:52:09;22.30;99.90
18880;DHT22;9572;52.378;13.404;2022-09-01T13:54:36;22.40;99.90
18880;DHT22;9572;52.378;13.404;2022-09-01T13:57:03;22.40;99.90
18880;DHT22;9572;52.378;13.404;2022-09-01T13:59:31;22.40;99.90
18880;DHT22;9572;52.378;13.404;2022-09-01T14:01:59;22.40;99.90
18880;DHT22;9572;52.378;13.404;2022-09-01T14:04:26;22.40;99.90
18880;DHT22;9572;52.378;13.404;2022-09-01T14:06:53;22.60;99.90
18880;DHT22;9572;52.378;13.404;2022-09-01T14:09:20;22.80;99.90
18880;DHT22;9572;52.378;13.404;2022-09-01T14:11:47;22.90;99.90
18880;DHT22;9572;52.378;13.404;2022-09-01T14:14:14;23.10;99.90
18880;DHT22;9572;52.378;13.404;2022-09-01T14:16:44;23.10;99.90
18880;DHT22;9572;52.378;13.404;2022-09-01T14:19:11;23.00;99.90
18880;DHT22;9572;52.378;13.404;2022-09-01T14:21:38;22.90;99.90
18880;DHT22;9572;52.378;13.404;2022-09-01T14:24:06;22.70;99.90
18880;DHT22;9572;52.378;13.404;2022-09-01T14:26:33;22.70;99.90
18880;DHT22;9572;52.378;13.404;2022-09-01T14:29:00;22.60;99.90
18880;DHT22;9572;52.378;13.404;2022-09-01T14:31:28;22.50;99.90
18880;DHT22;9572;52.378;13.404;2022-09-01T14:33:57;22.50;99.90
18880;DHT22;9572;52.378;13.404;2022-09-01T14:36:26;22.50;99.90
18880;DHT22;9572;52.378;13.404;2022-09-01T14:38:53;22.50;99.90
18880;DHT22;9572;52.378;13.404;2022-09-01T14:41:22;22.50;99.90
18880;DHT22;9572;52.378;13.404;2022-09-01T14:43:50;22.40;99.90
18880;DHT22;9572;52.378;13.404;2022-09-01T14:46:18;22.30;99.90
18880;DHT22;9572;52.378;13.404;2022-09-01T14:48:45;22.30;99.90
18880;DHT22;9572;52.378;13.404;2022-09-01T14:51:21;22.20;99.90
18880;DHT22;9572;52.378;13.404;2022-09-01T14:53:49;22.20;99.90
18880;DHT22;9572;52.378;13.404;2022-09-01T14:56:17;22.10;99.90
18880;DHT22;9572;52.378;13.404;2022-09-01T14:58:44;22.10;99.90
18880;DHT22;9572;52.378;13.404;2022-09-01T15:01:13;21.90;99.90
18880;DHT22;9572;52.378;13.404;2022-09-01T15:03:40;21.90;99.90
18880;DHT22;9572;52.378;13.404;2022-09-01T15:06:10;21.80;99.90
18880;DHT22;9572;52.378;13.404;2022-09-01T15:08:39;21.70;99.90
18880;DHT22;9572;52.378;13.404;2022-09-01T15:11:08;21.60;99.90
18880;DHT22;9572;52.378;13.404;2022-09-01T15:13:35;21.50;99.90
18880;DHT22;9572;52.378;13.404;2022-09-01T15:16:03;21.40;99.90
18880;DHT22;9572;52.378;13.404;2022-09-01T15:18:31;21.30;99.90
18880;DHT22;9572;52.378;13.404;2022-09-01T15:20:57;21.20;99.90
18880;DHT22;9572;52.378;13.404;2022-09-01T15:23:25;21.20;99.90
18880;DHT22;9572;52.378;13.404;2022-09-01T15:25:54;21.10;99.90
18880;DHT22;9572;52.378;13.404;2022-09-01T15:28:22;21.20;99.90
18880;DHT22;9572;52.378;13.404;2022-09-01T15:30:49;21.10;99.90
18880;DHT22;9572;52.378;13.404;2022-09-01T15:33:17;21.10;99.90
18880;DHT22;9572;52.378;13.404;2022-09-01T15:35:44;21.00;99.90
18880;DHT22;9572;52.378;13.404;2022-09-01T15:38:13;21.00;99.90
18880;DHT22;9572;52.378;13.404;2022-09-01T15:40:41;21.00;99.90
18880;DHT22;9572;52.378;13.404;2022-09-01T15:43:10;21.00;99.90
18880;DHT22;9572;52.378;13.404;2022-09-01T15:45:37;21.00;99.90
18880;DHT22;9572;52.378;13.404;2022-09-01T15:48:06;21.10;99.90
18880;DHT22;9572;52.378;13.404;2022-09-01T15:50:33;21.00;99.90
18880;DHT22;9572;52.378;13.404;2022-09-01T15:53:01;21.00;99.90
18880;DHT22;9572;52.378;13.404;2022-09-01T15:55:38;21.10;99.90
18880;DHT22;9572;52.378;13.404;2022-09-01T15:58:07;21.00;99.90
18880;DHT22;9572;52.378;13.404;2022-09-01T16:00:35;21.00;99.90
18880;DHT22;9572;52.378;13.404;2022-09-01T16:03:03;21.00;99.90